Berkey, Ohio
Current Conditions -  °F | °C
As of 8:52 AM on Saturday 22 Nov 2014 (Local Time) from KTOL Reporting Station
Haze Haze  
Wind Chill: 27°   Ceiling: 3800
Heat Index: 33°   Visibility: 4mi
Dew Point: 31°   Wind: 7mph
Humidity: 92%   Direction: 200°SSW
Pressure: 30.14"   Gusts: NA
Location:  41.72°N, 83.84°W
Report Text: KTOL 221352Z 20006KT 4SM BR FEW030 BKN038 OVC048 01/M01 A3014 RMK AO2 SLP216 T00061006
Loading
Personal Weather Stations






























Interactive Weather Map New forecast layout! Learn more

10-Day Weather Forecast

Advertisements
Track Severe Weather on mobile